Time;durP1;ratioP1;P1;durP2;ratioP2;P2;SDS_P1;SDS_P2;PMS_P1;PMS_P2;Temp;Humidity;BMP_temperature;BMP_pressure;BME280_temperature;BME280_humidity;BME280_pressure;Samples;Min_cycle;Max_cycle;Signal;HPM_P1;HPM_P2
2022/03/14 00:02:52;;;;;;;55.27;28.57;;;;;;;2.54;53.52;101601.48;3596538;81;31667;-79
2022/03/14 00:07:53;;;;;;;58.07;28.13;;;;;;;2.49;53.79;101604.81;3597926;80;98671;-79
2022/03/14 00:13:00;;;;;;;52.63;27.67;;;;;;;2.44;53.88;101602.16;3599310;80;98696;-79
2022/03/14 00:17:58;;;;;;;56.43;29.37;;;;;;;2.38;54.05;101601.98;3591974;80;98896;-79
2022/03/14 00:22:59;;;;;;;53.80;28.50;;;;;;;2.34;54.20;101610.45;3602179;80;98931;-80
2022/03/14 00:28:00;;;;;;;54.53;27.60;;;;;;;2.33;54.47;101609.67;3592710;80;98862;-81
2022/03/14 00:33:02;;;;;;;57.73;27.30;;;;;;;2.31;54.84;101619.21;3626164;80;32738;-80
2022/03/14 00:38:03;;;;;;;55.83;26.50;;;;;;;2.28;54.75;101611.64;3671038;78;98955;-80
2022/03/14 00:43:04;;;;;;;52.53;25.47;;;;;;;2.26;55.26;101618.74;3651694;79;98743;-81
2022/03/14 00:48:05;;;;;;;50.43;27.77;;;;;;;2.25;55.79;101608.16;3670230;78;98897;-80
2022/03/14 00:53:07;;;;;;;48.70;26.17;;;;;;;2.24;55.93;101616.06;3665308;78;98976;-80
2022/03/14 00:58:08;;;;;;;53.17;26.77;;;;;;;2.21;55.94;101612.56;3643025;79;98883;-81
2022/03/14 01:03:09;;;;;;;45.23;24.60;;;;;;;2.17;56.60;101609.63;3667530;78;31962;-81
2022/03/14 01:08:11;;;;;;;62.30;31.97;;;;;;;2.12;57.04;101614.30;3673715;78;98688;-79
2022/03/14 01:13:12;;;;;;;56.63;29.10;;;;;;;2.05;57.36;101605.17;3672445;78;98782;-80
2022/03/14 01:18:13;;;;;;;51.03;27.77;;;;;;;2.01;57.92;101603.31;3687574;78;99246;-79
2022/03/14 01:23:14;;;;;;;53.20;25.73;;;;;;;1.95;58.40;101601.23;3640634;79;98814;-79
2022/03/14 01:28:15;;;;;;;54.77;29.23;;;;;;;1.90;58.87;101602.66;3675442;78;98894;-80
2022/03/14 01:33:17;;;;;;;54.87;29.07;;;;;;;1.87;59.69;101599.72;3660120;78;99204;-80
2022/03/14 01:38:17;;;;;;;59.43;28.70;;;;;;;1.84;59.90;101607.89;3612280;79;98535;-80
2022/03/14 01:43:20;;;;;;;53.57;28.33;;;;;;;1.80;60.05;101607.41;3613732;80;98752;-80
2022/03/14 01:48:21;;;;;;;56.37;27.93;;;;;;;1.76;60.58;101611.23;3606688;80;99003;-80
2022/03/14 01:53:24;;;;;;;53.77;26.40;;;;;;;1.71;60.95;101624.86;3618266;78;99298;-80
2022/03/14 01:58:25;;;;;;;52.33;27.52;;;;;;;1.66;61.03;101615.45;3609750;80;99001;-80
2022/03/14 02:03:26;;;;;;;52.30;26.07;;;;;;;1.60;61.34;101612.50;3625083;80;98836;-80
2022/03/14 02:08:27;;;;;;;47.00;25.08;;;;;;;1.57;61.80;101613.09;3577716;81;99062;-80
2022/03/14 02:13:28;;;;;;;56.03;28.23;;;;;;;1.54;62.21;101619.66;3608560;80;99007;-80
2022/03/14 02:18:29;;;;;;;53.83;27.67;;;;;;;1.48;62.46;101618.88;3579818;80;98868;-79
2022/03/14 02:23:30;;;;;;;49.10;25.30;;;;;;;1.43;63.13;101615.44;3611873;81;98924;-80
2022/03/14 02:28:31;;;;;;;50.23;25.72;;;;;;;1.38;63.91;101608.14;3605300;80;98898;-79
2022/03/14 02:33:33;;;;;;;54.07;27.97;;;;;;;1.34;63.51;101614.44;3616439;80;98785;-79
2022/03/14 02:38:34;;;;;;;48.77;25.37;;;;;;;1.27;64.53;101618.83;3646959;79;98521;-80
2022/03/14 02:43:35;;;;;;;47.53;25.07;;;;;;;1.24;64.68;101606.39;3640450;79;98585;-80
2022/03/14 02:48:39;;;;;;;47.77;24.23;;;;;;;1.19;65.06;101607.80;3613900;79;98678;-80
2022/03/14 02:53:39;;;;;;;52.97;26.37;;;;;;;1.13;65.33;101605.70;3676623;79;98902;-81
2022/03/14 02:58:41;;;;;;;48.17;23.50;;;;;;;1.09;66.25;101607.92;3650468;79;98858;-80
2022/03/14 03:03:42;;;;;;;47.87;23.67;;;;;;;1.05;66.69;101612.29;3660803;77;98752;-80
2022/03/14 03:08:44;;;;;;;44.97;22.47;;;;;;;1.03;66.93;101613.92;3666205;78;98852;-80
2022/03/14 03:13:47;;;;;;;47.77;23.83;;;;;;;0.99;67.14;101612.08;3651399;79;98472;-79
2022/03/14 03:18:48;;;;;;;49.08;22.32;;;;;;;0.98;68.08;101612.61;3663659;79;98782;-80
2022/03/14 03:23:50;;;;;;;47.70;22.67;;;;;;;0.98;68.16;101618.03;3670262;78;98784;-80
2022/03/14 03:28:51;;;;;;;44.20;22.07;;;;;;;0.96;68.68;101621.58;3660661;77;99009;-81
2022/03/14 03:33:52;;;;;;;45.80;23.50;;;;;;;0.94;68.67;101621.61;3659339;79;99260;-82
2022/03/14 03:38:53;;;;;;;46.83;22.90;;;;;;;0.91;69.64;101620.27;3658752;78;98950;-81
2022/03/14 03:43:54;;;;;;;43.03;20.40;;;;;;;0.91;69.46;101624.33;3698640;78;98699;-81
2022/03/14 03:48:55;;;;;;;40.10;21.03;;;;;;;0.88;70.57;101625.45;3681305;79;98988;-80
2022/03/14 03:53:57;;;;;;;46.73;21.20;;;;;;;0.84;70.32;101624.39;3661513;79;99436;-82
2022/03/14 03:58:57;;;;;;;40.67;20.03;;;;;;;0.78;70.27;101624.96;3678587;78;98850;-81
2022/03/14 04:03:59;;;;;;;43.53;20.50;;;;;;;0.75;70.45;101627.44;3669355;80;99226;-81
2022/03/14 04:09:03;;;;;;;42.27;19.57;;;;;;;0.71;70.62;101633.97;3664833;79;98693;-80
2022/03/14 04:14:05;;;;;;;45.33;21.13;;;;;;;0.68;70.83;101643.20;3670980;79;99069;-82
2022/03/14 04:19:06;;;;;;;41.48;21.05;;;;;;;0.63;70.84;101646.78;3643897;79;98684;-81
2022/03/14 04:24:07;;;;;;;38.97;19.13;;;;;;;0.58;71.24;101647.34;3651568;78;98823;-80
2022/03/14 04:29:08;;;;;;;41.93;20.07;;;;;;;0.55;71.60;101646.56;3651365;79;98781;-80
2022/03/14 04:34:10;;;;;;;41.33;20.23;;;;;;;0.52;72.29;101662.01;3633504;79;98819;-80
2022/03/14 04:39:11;;;;;;;41.28;19.45;;;;;;;0.46;72.08;101663.95;3643396;79;98512;-81
2022/03/14 04:44:12;;;;;;;44.00;19.83;;;;;;;0.42;72.00;101659.36;3584746;80;98536;-79
2022/03/14 04:49:14;;;;;;;47.30;21.37;;;;;;;0.37;72.28;101665.62;3548530;81;98666;-80
2022/03/14 04:54:15;;;;;;;40.83;18.83;;;;;;;0.32;72.58;101670.23;3567203;78;98852;-79
2022/03/14 04:59:16;;;;;;;45.60;23.20;;;;;;;0.26;72.32;101670.00;3528326;81;98857;-80
2022/03/14 05:04:18;;;;;;;44.57;20.93;;;;;;;0.23;72.76;101666.52;3666571;78;98832;-80
2022/03/14 05:09:19;;;;;;;40.93;19.73;;;;;;;0.21;72.99;101664.08;3677693;78;98846;-80
2022/03/14 05:14:20;;;;;;;43.13;20.30;;;;;;;0.20;73.37;101663.82;3657028;78;31564;-80
2022/03/14 05:19:21;;;;;;;47.83;24.33;;;;;;;0.18;73.21;101659.77;3664007;78;98782;-81
2022/03/14 05:24:22;;;;;;;44.07;21.50;;;;;;;0.17;73.66;101667.63;3663726;75;98729;-80
2022/03/14 05:29:24;;;;;;;44.67;21.17;;;;;;;0.15;74.19;101670.61;3657241;78;99004;-81
2022/03/14 05:34:25;;;;;;;43.23;20.53;;;;;;;0.02;74.80;101666.34;3638547;77;97930;-80
2022/03/14 05:39:26;;;;;;;40.00;20.03;;;;;;;0.02;74.80;101666.34;3638321;79;98840;-80
2022/03/14 05:44:27;;;;;;;43.87;21.37;;;;;;;0.16;74.03;101682.23;3672837;78;32131;-81
2022/03/14 05:49:27;;;;;;;41.53;21.00;;;;;;;0.16;74.40;101680.34;3637351;79;98857;-82
2022/03/14 05:54:28;;;;;;;46.80;20.93;;;;;;;0.17;74.95;101686.02;3642647;78;99207;-82
2022/03/14 05:59:29;;;;;;;49.00;21.63;;;;;;;0.19;74.37;101682.52;3657538;75;98717;-81
2022/03/14 06:04:30;;;;;;;43.63;21.23;;;;;;;0.22;74.40;101677.09;3618317;79;99134;-82
2022/03/14 06:09:32;;;;;;;47.07;21.97;;;;;;;0.25;74.63;101679.22;3641630;79;99240;-81
2022/03/14 06:14:33;;;;;;;44.33;22.13;;;;;;;0.30;74.34;101679.20;3657339;79;34793;-82
2022/03/14 06:19:34;;;;;;;42.30;22.63;;;;;;;0.36;74.22;101676.73;3643796;79;99119;-82
2022/03/14 06:24:34;;;;;;;54.40;23.50;;;;;;;0.44;74.21;101678.86;3586444;81;98874;-82
2022/03/14 06:29:35;;;;;;;52.60;22.30;;;;;;;0.57;73.98;101683.65;3555159;81;98872;-80
2022/03/14 06:34:38;;;;;;;43.97;22.50;;;;;;;0.68;73.66;101687.91;3641478;79;99228;-78
2022/03/14 06:39:39;;;;;;;48.53;22.40;;;;;;;0.84;73.34;101688.08;3631360;79;98814;-77
2022/03/14 06:44:42;;;;;;;46.53;22.23;;;;;;;0.99;72.55;101705.03;3665568;78;34891;-77
2022/03/14 06:49:45;;;;;;;51.83;24.30;;;;;;;1.16;72.13;101711.41;3641254;78;98891;-76
2022/03/14 06:54:46;;;;;;;47.73;22.53;;;;;;;1.30;71.81;101694.73;3645086;79;99079;-78
2022/03/14 06:59:47;;;;;;;50.40;22.90;;;;;;;1.48;71.19;101692.13;3636089;79;98874;-78
2022/03/14 07:04:48;;;;;;;53.33;25.37;;;;;;;1.65;70.38;101701.20;3634770;79;99304;-78
2022/03/14 07:09:49;;;;;;;44.93;20.83;;;;;;;1.76;69.90;101708.94;3628623;79;98822;-78
2022/03/14 07:14:50;;;;;;;50.17;22.47;;;;;;;1.85;69.50;101705.86;3657939;78;34861;-78
2022/03/14 07:19:52;;;;;;;49.10;22.37;;;;;;;2.06;68.81;101695.57;3649990;78;98660;-78
2022/03/14 07:24:53;;;;;;;55.87;23.90;;;;;;;2.22;68.23;101699.72;3664859;78;99024;-80
2022/03/14 07:29:54;;;;;;;45.93;23.13;;;;;;;2.43;67.30;101701.08;3660074;78;98840;-79
2022/03/14 07:34:57;;;;;;;65.53;23.80;;;;;;;2.55;66.48;101700.92;3663464;79;98856;-79
2022/03/14 07:39:57;;;;;;;45.37;22.03;;;;;;;2.66;65.76;101703.75;3665553;77;98844;-77
2022/03/14 07:44:59;;;;;;;45.47;22.30;;;;;;;2.84;65.38;101708.37;3659865;79;34856;-79
2022/03/14 07:50:00;;;;;;;53.10;25.00;;;;;;;3.06;64.37;101711.29;3643190;79;99113;-78
2022/03/14 07:55:02;;;;;;;52.87;20.80;;;;;;;3.21;62.76;101715.67;3660312;78;98595;-77
2022/03/14 08:00:08;;;;;;;50.67;23.17;;;;;;;3.36;62.62;101720.33;3629194;79;98793;-77
2022/03/14 08:05:13;;;;;;;47.17;22.77;;;;;;;3.50;61.92;101714.36;3665015;78;98857;-78
2022/03/14 08:10:17;;;;;;;48.42;22.00;;;;;;;3.73;60.78;101710.70;3651580;78;98780;-77
2022/03/14 08:15:29;;;;;;;43.13;21.33;;;;;;;3.90;59.93;101705.47;3643456;80;99179;-76
2022/03/14 08:20:40;;;;;;;46.13;23.60;;;;;;;4.08;59.63;101701.02;3595483;81;98638;-77
2022/03/14 08:25:41;;;;;;;42.73;20.73;;;;;;;4.31;58.97;101712.28;3615167;80;99069;-77
2022/03/14 08:30:44;;;;;;;41.73;21.53;;;;;;;4.55;58.15;101712.30;3628393;79;98879;-78
2022/03/14 08:35:45;;;;;;;45.52;21.80;;;;;;;4.77;57.16;101704.72;3636317;78;98868;-78
2022/03/14 08:40:46;;;;;;;36.87;21.20;;;;;;;5.03;56.27;101720.76;3603855;79;99275;-79
2022/03/14 08:45:47;;;;;;;40.03;21.13;;;;;;;5.28;55.91;101722.86;3612547;80;98888;-78
2022/03/14 08:50:48;;;;;;;42.27;22.33;;;;;;;5.56;55.18;101721.05;3626726;80;98589;-79
2022/03/14 08:55:49;;;;;;;49.23;23.93;;;;;;;5.83;55.09;101701.80;3680844;78;98894;-78
2022/03/14 09:00:51;;;;;;;43.57;22.20;;;;;;;6.24;56.12;101714.59;3620833;80;98748;-78
2022/03/14 09:05:58;;;;;;;41.53;22.37;;;;;;;6.76;54.48;101701.83;3603009;79;98780;-78
2022/03/14 09:11:01;;;;;;;43.55;21.05;;;;;;;7.39;54.26;101700.59;3600478;80;98864;-80
2022/03/14 09:16:02;;;;;;;43.83;23.10;;;;;;;8.10;52.93;101690.95;3620435;80;98810;-79
2022/03/14 09:21:03;;;;;;;39.43;21.50;;;;;;;8.78;51.44;101696.62;3635541;79;98332;-80
2022/03/14 09:26:04;;;;;;;51.90;24.20;;;;;;;9.15;49.18;101690.16;3620735;81;98612;-77
2022/03/14 09:31:14;;;;;;;45.07;22.00;;;;;;;9.80;48.56;101691.51;3621299;79;98809;-77
2022/03/14 09:36:16;;;;;;;41.60;22.20;;;;;;;10.70;48.75;101680.54;3626019;80;99037;-79
2022/03/14 09:41:19;;;;;;;40.77;23.57;;;;;;;11.30;45.49;101677.59;3627476;79;99311;-78
2022/03/14 09:46:21;;;;;;;63.28;24.40;;;;;;;11.89;44.19;101681.19;3607691;80;99114;-78
2022/03/14 09:51:24;;;;;;;41.00;23.00;;;;;;;12.52;44.25;101686.30;3627255;80;98737;-80
2022/03/14 09:56:26;;;;;;;35.15;21.80;;;;;;;12.68;40.58;101684.30;3639281;79;99121;-80
2022/03/14 10:01:30;;;;;;;40.23;23.30;;;;;;;12.94;38.95;101689.20;3659298;79;99028;-79
2022/03/14 10:06:31;;;;;;;33.98;20.72;;;;;;;13.19;39.25;101683.05;3637192;79;99122;-78
2022/03/14 10:11:32;;;;;;;37.47;22.70;;;;;;;13.33;37.92;101682.54;3614567;80;99091;-79
2022/03/14 10:16:33;;;;;;;36.27;20.57;;;;;;;13.79;38.39;101680.08;3608843;80;108497;-78
2022/03/14 10:21:42;;;;;;;31.90;20.47;;;;;;;14.39;37.77;101674.98;3593592;80;26915;-78
2022/03/14 10:26:45;;;;;;;34.83;20.35;;;;;;;14.70;37.08;101669.91;3609420;80;99346;-79
2022/03/14 10:31:57;;;;;;;41.53;19.07;;;;;;;15.20;36.69;101669.37;3553156;81;98304;-78
2022/03/14 10:36:58;;;;;;;29.70;18.95;;;;;;;15.90;35.84;101665.98;3591607;80;98792;-79
2022/03/14 10:42:12;;;;;;;35.73;18.10;;;;;;;15.96;33.51;101653.95;3571710;81;99386;-79
2022/03/14 10:47:13;;;;;;;69.60;20.77;;;;;;;15.64;33.57;101649.47;3575660;80;99202;-79
2022/03/14 10:52:18;;;;;;;28.85;16.90;;;;;;;16.18;33.75;101644.61;3601325;81;99257;-80
2022/03/14 10:57:25;;;;;;;31.00;19.20;;;;;;;16.08;30.56;101651.66;3615478;80;99216;-78
2022/03/14 11:02:28;;;;;;;30.88;17.45;;;;;;;15.92;31.60;101655.28;3686211;79;99046;-79
2022/03/14 11:07:31;;;;;;;29.87;18.33;;;;;;;16.09;31.85;101642.75;3649918;77;99206;-77
2022/03/14 11:12:32;;;;;;;29.07;17.90;;;;;;;15.84;29.94;101638.38;3616649;80;99245;-79
2022/03/14 11:17:37;;;;;;;32.43;17.43;;;;;;;15.48;29.09;101637.03;3609242;80;99279;-79
2022/03/14 11:22:40;;;;;;;28.92;16.00;;;;;;;15.48;30.16;101628.70;3634786;79;99178;-78
2022/03/14 11:27:42;;;;;;;27.75;15.78;;;;;;;15.62;30.49;101627.44;3625726;80;98898;-79
2022/03/14 11:32:45;;;;;;;24.70;15.83;;;;;;;15.82;30.64;101626.86;3621186;80;99246;-78
2022/03/14 11:37:46;;;;;;;22.90;14.58;;;;;;;16.06;30.32;101612.95;3622373;80;99407;-77
2022/03/14 11:42:48;;;;;;;24.87;14.20;;;;;;;16.25;30.45;101605.77;3622415;79;99484;-80
2022/03/14 11:47:52;;;;;;;24.33;14.30;;;;;;;16.47;29.85;101618.02;3616009;80;99241;-78
2022/03/14 11:52:55;;;;;;;22.05;14.00;;;;;;;16.29;29.29;101612.15;3630062;79;98432;-79
2022/03/14 11:57:56;;;;;;;37.88;14.50;;;;;;;16.08;28.06;101607.83;3626827;79;99541;-79
2022/03/14 12:03:02;;;;;;;22.97;12.13;;;;;;;15.97;27.88;101599.39;3627622;80;29765;-78
2022/03/14 12:08:27;;;;;;;20.88;12.60;;;;;;;15.69;28.19;101599.16;3612352;80;99417;-78
2022/03/14 12:13:43;;;;;;;21.07;11.90;;;;;;;15.93;27.63;101597.20;3576487;81;99382;-78
2022/03/14 12:18:44;;;;;;;23.22;12.13;;;;;;;15.75;28.17;101606.56;3626523;80;99074;-80
2022/03/14 12:23:51;;;;;;;24.33;11.87;;;;;;;15.76;27.04;101608.94;3622363;80;99141;-79
2022/03/14 12:28:55;;;;;;;19.70;12.17;;;;;;;15.66;28.66;101605.50;3604059;80;99307;-79
2022/03/14 12:34:01;;;;;;;24.82;12.68;;;;;;;15.73;28.49;101604.17;3623043;80;99498;-79
2022/03/14 12:39:21;;;;;;;26.48;13.65;;;;;;;15.69;28.32;101605.33;3608338;80;98827;-79
2022/03/14 12:44:25;;;;;;;18.65;10.08;;;;;;;15.59;27.57;101606.80;3567881;81;98903;-79
2022/03/14 12:49:49;;;;;;;22.73;11.57;;;;;;;15.42;26.82;101592.78;3544209;81;99589;-79
2022/03/14 12:54:50;;;;;;;22.40;11.22;;;;;;;15.36;28.79;101601.24;3592952;80;99642;-78
2022/03/14 12:59:59;;;;;;;17.03;10.70;;;;;;;15.33;27.63;101608.34;3597995;80;99613;-78
2022/03/14 13:05:02;;;;;;;16.73;10.38;;;;;;;15.30;28.67;101615.19;3603902;80;99131;-79
2022/03/14 13:10:04;;;;;;;18.87;10.13;;;;;;;15.32;27.52;101615.02;3590975;80;99287;-79
2022/03/14 13:15:09;;;;;;;18.07;10.75;;;;;;;15.24;28.37;101605.61;3631033;79;31899;-78
2022/03/14 13:20:28;;;;;;;27.50;11.57;;;;;;;15.10;28.00;101621.50;3570654;81;99118;-78
2022/03/14 13:25:35;;;;;;;19.05;11.60;;;;;;;15.05;28.61;101619.67;3559780;80;98969;-77
2022/03/14 13:30:42;;;;;;;19.37;11.12;;;;;;;15.09;28.59;101612.98;3618433;80;99481;-80
2022/03/14 13:35:44;;;;;;;22.10;12.05;;;;;;;15.02;28.49;101620.41;3632839;80;99167;-80
2022/03/14 13:40:46;;;;;;;22.22;11.88;;;;;;;14.93;28.43;101618.54;3615403;80;99172;-80
2022/03/14 13:45:47;;;;;;;21.93;11.57;;;;;;;14.90;28.84;101609.01;3608080;80;99272;-79
2022/03/14 13:50:49;;;;;;;20.07;11.37;;;;;;;14.77;28.91;101605.47;3611677;80;99570;-79
2022/03/14 13:55:56;;;;;;;25.70;12.40;;;;;;;14.70;29.12;101595.66;3629876;79;98969;-80
2022/03/14 14:00:57;;;;;;;126.38;66.62;;;;;;;14.60;28.58;101583.27;3574410;81;99480;-79
2022/03/14 14:06:17;;;;;;;34.33;18.83;;;;;;;14.56;28.69;101589.95;3564544;80;99391;-81
2022/03/14 14:11:26;;;;;;;26.17;11.73;;;;;;;14.50;26.93;101595.61;3580060;81;99165;-79
2022/03/14 14:16:27;;;;;;;31.07;17.98;;;;;;;14.28;26.92;101583.41;3573162;80;99573;-78
2022/03/14 14:21:29;;;;;;;32.17;16.77;;;;;;;14.17;28.00;101574.73;3557067;81;99069;-80
2022/03/14 14:26:31;;;;;;;27.37;17.37;;;;;;;14.15;27.79;101573.70;3595890;80;99038;-79
2022/03/14 14:31:32;;;;;;;18.27;11.30;;;;;;;14.05;28.41;101567.42;3602676;80;99060;-78
2022/03/14 14:36:35;;;;;;;24.50;14.97;;;;;;;13.99;29.06;101566.15;3580430;79;99283;-77
2022/03/14 14:41:37;;;;;;;19.32;11.63;;;;;;;13.91;28.88;101568.58;3641509;79;99577;-79
2022/03/14 14:46:38;;;;;;;22.37;12.33;;;;;;;13.80;28.86;101558.53;3630057;79;99553;-79
2022/03/14 14:51:39;;;;;;;20.80;12.53;;;;;;;13.64;27.60;101567.55;3638651;79;26497;-81
2022/03/14 14:56:40;;;;;;;21.03;13.63;;;;;;;13.48;28.13;101578.75;3632158;79;99284;-79
2022/03/14 15:01:41;;;;;;;30.33;12.50;;;;;;;13.31;28.34;101585.34;3636217;80;99009;-80
2022/03/14 15:06:42;;;;;;;22.13;11.70;;;;;;;13.21;28.04;101586.75;3635667;79;99286;-78
2022/03/14 15:11:44;;;;;;;19.97;12.23;;;;;;;13.16;28.46;101594.53;3645297;80;99582;-80
2022/03/14 15:16:45;;;;;;;21.67;11.97;;;;;;;13.15;27.15;101587.41;3653637;78;99568;-79
2022/03/14 15:21:46;;;;;;;26.00;13.70;;;;;;;13.10;28.99;101593.23;3650104;79;99540;-78
2022/03/14 15:26:47;;;;;;;23.83;13.47;;;;;;;13.00;28.07;101589.09;3654498;79;105173;-78
2022/03/14 15:31:50;;;;;;;23.27;10.63;;;;;;;12.97;28.62;101598.70;3637078;79;99191;-79
2022/03/14 15:36:51;;;;;;;21.47;11.10;;;;;;;12.92;28.62;101593.44;3655283;79;99211;-78
2022/03/14 15:41:52;;;;;;;27.73;11.23;;;;;;;12.82;29.45;101586.52;3644297;79;99134;-79
2022/03/14 15:46:53;;;;;;;22.13;11.18;;;;;;;12.71;28.99;101590.24;3649036;79;99526;-79
2022/03/14 15:51:54;;;;;;;18.17;11.17;;;;;;;12.64;28.65;101591.48;3665529;79;99219;-79
2022/03/14 15:56:55;;;;;;;19.93;10.63;;;;;;;12.56;28.44;101587.77;3584772;81;99179;-78
2022/03/14 16:01:57;;;;;;;19.73;9.83;;;;;;;12.48;29.27;101590.14;3586326;81;99329;-78
2022/03/14 16:07:00;;;;;;;21.07;11.08;;;;;;;12.37;29.89;101593.84;3580886;78;98973;-79
2022/03/14 16:12:01;;;;;;;20.73;11.43;;;;;;;12.24;30.26;101595.92;3584465;81;99697;-79
2022/03/14 16:17:02;;;;;;;27.37;11.28;;;;;;;12.11;29.89;101591.66;3574773;81;99238;-78
2022/03/14 16:22:04;;;;;;;23.57;11.83;;;;;;;11.99;30.29;101603.41;3590327;81;99113;-78
2022/03/14 16:27:07;;;;;;;24.80;12.13;;;;;;;11.82;31.06;101598.27;3586399;81;98776;-77
2022/03/14 16:32:09;;;;;;;39.13;12.90;;;;;;;11.68;31.14;101603.41;3597599;80;99407;-79
2022/03/14 16:37:10;;;;;;;29.63;13.18;;;;;;;11.41;31.53;101608.39;3605368;78;99051;-76
2022/03/14 16:42:11;;;;;;;32.60;16.60;;;;;;;11.25;32.48;101613.07;3617842;78;99333;-77
2022/03/14 16:47:13;;;;;;;32.73;17.93;;;;;;;11.07;31.53;101622.81;3619337;79;99224;-76
2022/03/14 16:52:15;;;;;;;31.02;15.63;;;;;;;10.86;32.52;101622.20;3611749;80;99204;-77
2022/03/14 16:57:16;;;;;;;33.85;13.90;;;;;;;10.60;32.66;101617.13;3612558;80;99117;-77
2022/03/14 17:02:19;;;;;;;28.13;13.87;;;;;;;10.38;33.16;101627.27;3614389;79;98897;-75
2022/03/14 17:07:20;;;;;;;26.12;14.10;;;;;;;10.16;33.88;101618.69;3593120;80;99134;-77
2022/03/14 17:12:21;;;;;;;28.23;15.00;;;;;;;9.94;35.26;101624.06;3594915;77;98922;-76
2022/03/14 17:17:25;;;;;;;31.25;14.65;;;;;;;9.75;35.33;101616.94;3661795;79;99445;-78
2022/03/14 17:22:25;;;;;;;34.08;16.02;;;;;;;9.47;35.47;101622.86;3554770;80;98871;-77
2022/03/14 17:27:26;;;;;;;33.37;15.03;;;;;;;9.25;35.96;101628.75;3645902;79;98848;-80
2022/03/14 17:37:36;;;;;;;26.60;15.53;;;;;;;9.02;39.62;101644.56;3850943;74;25871;-80
2022/03/14 17:42:37;;;;;;;35.10;16.85;;;;;;;8.84;40.69;101641.75;3783063;76;99165;-80
2022/03/14 17:47:38;;;;;;;35.80;18.80;;;;;;;8.61;40.76;101650.87;3813130;75;98815;-81
2022/03/14 17:52:39;;;;;;;27.73;16.00;;;;;;;8.39;41.41;101653.94;3794761;77;98878;-80
2022/03/14 17:57:40;;;;;;;37.30;21.87;;;;;;;8.24;42.32;101649.61;3706242;78;99008;-81
2022/03/14 18:02:41;;;;;;;38.17;22.07;;;;;;;8.05;42.62;101647.81;3619007;80;98483;-80
2022/03/14 18:07:43;;;;;;;44.00;24.10;;;;;;;7.91;42.29;101643.92;3625557;80;99035;-81
2022/03/14 18:12:44;;;;;;;49.20;25.93;;;;;;;7.75;41.66;101650.30;3663249;79;99216;-81
2022/03/14 18:17:46;;;;;;;52.07;27.10;;;;;;;7.64;41.29;101653.95;3614247;80;99001;-80
2022/03/14 18:22:47;;;;;;;48.37;25.47;;;;;;;7.54;40.80;101650.77;3661675;79;98773;-81
2022/03/14 18:27:48;;;;;;;54.20;26.83;;;;;;;7.42;40.08;101652.02;3631182;79;98888;-80
2022/03/14 18:32:49;;;;;;;46.70;22.57;;;;;;;7.36;40.05;101657.44;3644600;80;34870;-80
2022/03/14 18:37:50;;;;;;;48.93;24.50;;;;;;;7.30;40.27;101656.78;3706343;78;99089;-80
2022/03/14 18:42:51;;;;;;;44.50;21.47;;;;;;;7.25;39.99;101662.43;3709486;77;99182;-81
2022/03/14 18:47:52;;;;;;;46.63;25.03;;;;;;;7.19;40.24;101662.95;3680060;77;98777;-82
2022/03/14 18:52:54;;;;;;;52.87;26.83;;;;;;;7.08;40.88;101654.25;3666494;79;98871;-82
2022/03/14 18:57:55;;;;;;;52.87;28.00;;;;;;;7.10;41.06;101660.19;3698327;79;98893;-82
2022/03/14 19:02:56;;;;;;;81.70;48.40;;;;;;;7.09;42.02;101655.06;3700957;78;34869;-82
2022/03/14 19:07:58;;;;;;;72.03;40.43;;;;;;;7.07;41.12;101661.41;3691449;79;99225;-82
2022/03/14 19:12:59;;;;;;;88.43;38.00;;;;;;;7.05;41.01;101664.49;3690543;79;97956;-82
2022/03/14 19:18:00;;;;;;;73.30;34.67;;;;;;;7.05;42.11;101666.41;3683089;79;98852;-81
2022/03/14 19:23:01;;;;;;;79.40;37.40;;;;;;;7.02;42.89;101673.88;3697265;79;98717;-81
2022/03/14 19:28:04;;;;;;;69.67;32.48;;;;;;;6.93;42.74;101678.58;3676718;78;98859;-81
2022/03/14 19:33:05;;;;;;;71.13;35.87;;;;;;;6.80;43.78;101683.63;3697659;78;34890;-82
2022/03/14 19:38:08;;;;;;;56.37;29.10;;;;;;;6.71;43.71;101685.57;3603289;80;99000;-81
2022/03/14 19:43:15;;;;;;;69.97;33.30;;;;;;;6.65;45.43;101684.13;3704558;77;99085;-81
2022/03/14 19:48:18;;;;;;;83.07;40.12;;;;;;;6.59;45.72;101686.73;3724182;77;99196;-79
2022/03/14 19:53:21;;;;;;;90.53;45.47;;;;;;;6.47;46.43;101695.59;3701655;77;98809;-82
2022/03/14 19:58:25;;;;;;;104.45;50.03;;;;;;;6.33;47.02;101697.63;3700191;77;98943;-81
2022/03/14 20:03:27;;;;;;;90.35;43.28;;;;;;;6.18;47.11;101699.45;3729510;77;31562;-82
2022/03/14 20:08:28;;;;;;;93.05;44.42;;;;;;;6.05;46.94;101702.30;3724224;77;98669;-82
2022/03/14 20:13:30;;;;;;;96.03;45.93;;;;;;;5.97;46.98;101706.61;3695042;78;98671;-82
2022/03/14 20:18:32;;;;;;;133.90;49.33;;;;;;;5.88;47.79;101704.39;3688510;78;99224;-82
2022/03/14 20:23:33;;;;;;;103.10;47.93;;;;;;;5.80;48.18;101714.73;3697128;78;98856;-82
2022/03/14 20:28:34;;;;;;;118.93;52.43;;;;;;;5.68;48.67;101724.02;3688277;77;99367;-81
2022/03/14 20:33:36;;;;;;;99.97;47.40;;;;;;;5.57;48.89;101729.48;3697379;78;28989;-81
2022/03/14 20:38:37;;;;;;;97.13;45.07;;;;;;;5.44;49.70;101721.37;3733440;78;98849;-81
2022/03/14 20:43:39;;;;;;;85.37;43.43;;;;;;;5.33;49.88;101729.56;3694654;78;98618;-81
2022/03/14 20:48:43;;;;;;;99.20;46.20;;;;;;;5.21;50.09;101730.14;3686093;77;98890;-81
2022/03/14 20:53:45;;;;;;;102.15;49.48;;;;;;;5.08;50.34;101740.53;3688511;77;99365;-81
2022/03/14 20:58:45;;;;;;;96.87;48.45;;;;;;;5.00;50.71;101739.91;3722568;78;99023;-80
2022/03/14 21:03:47;;;;;;;100.97;49.27;;;;;;;4.90;51.07;101743.41;3735831;77;98784;-80
2022/03/14 21:08:48;;;;;;;95.20;48.60;;;;;;;4.81;51.19;101745.27;3695520;78;98930;-79
2022/03/14 21:13:52;;;;;;;90.83;45.33;;;;;;;4.70;51.38;101743.88;3706900;77;99060;-80
2022/03/14 21:18:56;;;;;;;97.00;45.90;;;;;;;4.66;51.58;101750.51;3759395;77;98846;-80
2022/03/14 21:23:59;;;;;;;94.00;44.63;;;;;;;4.61;52.15;101753.34;3787831;77;98801;-80
2022/03/14 21:29:00;;;;;;;91.32;46.33;;;;;;;4.54;52.54;101750.77;3783937;77;98658;-82
2022/03/14 21:34:02;;;;;;;98.12;45.38;;;;;;;4.42;52.56;101749.13;3740159;77;99229;-80
2022/03/14 21:39:04;;;;;;;89.35;41.40;;;;;;;4.32;53.14;101756.14;3684731;79;98881;-80
2022/03/14 21:44:06;;;;;;;89.15;42.80;;;;;;;4.24;52.99;101754.10;3721379;79;98630;-80
2022/03/14 21:49:07;;;;;;;95.22;42.93;;;;;;;4.14;53.26;101744.22;3768354;78;98824;-80
2022/03/14 21:54:08;;;;;;;92.60;46.70;;;;;;;4.03;52.98;101741.44;3795598;76;98750;-81
2022/03/14 21:59:11;;;;;;;98.67;45.70;;;;;;;3.93;53.75;101733.45;3797086;77;98989;-80
2022/03/14 22:04:12;;;;;;;92.20;44.00;;;;;;;3.84;54.22;101739.91;3782745;76;98785;-80
2022/03/14 22:09:17;;;;;;;77.40;37.53;;;;;;;3.74;54.74;101732.73;3789758;77;98566;-80
2022/03/14 22:14:18;;;;;;;69.97;34.92;;;;;;;3.65;54.50;101737.81;3742070;78;99106;-80
2022/03/14 22:19:20;;;;;;;73.53;36.80;;;;;;;3.61;55.15;101747.67;3750118;76;98767;-80
2022/03/14 22:24:21;;;;;;;64.77;32.67;;;;;;;3.47;55.27;101744.09;3751939;77;99140;-80
2022/03/14 22:29:21;;;;;;;59.93;30.57;;;;;;;3.40;55.08;101751.84;3745770;78;98942;-80
2022/03/14 22:34:23;;;;;;;68.87;33.73;;;;;;;3.35;55.45;101752.73;3730999;78;98900;-79
2022/03/14 22:39:23;;;;;;;67.57;33.23;;;;;;;3.31;55.80;101754.42;3709277;79;98620;-79
2022/03/14 22:44:24;;;;;;;67.93;32.10;;;;;;;3.27;56.43;101745.80;3662855;79;98636;-80
2022/03/14 22:49:25;;;;;;;70.30;35.37;;;;;;;3.20;56.25;101763.85;3609922;80;98711;-80
2022/03/14 22:54:26;;;;;;;92.57;41.47;;;;;;;3.16;56.85;101765.54;3640855;79;99213;-81
2022/03/14 22:59:27;;;;;;;104.23;46.63;;;;;;;3.12;56.97;101764.50;3652741;79;98864;-80
2022/03/14 23:09:48;;;;;;;76.33;37.40;;;;;;;3.00;57.54;101763.36;3689293;78;98822;-80
2022/03/14 23:14:49;;;;;;;75.63;34.43;;;;;;;3.04;57.63;101762.47;3667076;80;34782;-80